createdAt,value
2023-02-19T00:00:16.885Z,10.26
2023-02-19T00:01:15.297Z,10.31
2023-02-19T00:02:22.642Z,10.21
2023-02-19T00:03:16.026Z,10.26
2023-02-19T00:04:16.298Z,10.26
2023-02-19T00:05:18.470Z,10.26
2023-02-19T00:06:18.659Z,10.31
2023-02-19T00:07:18.816Z,10.47
2023-02-19T00:08:19.011Z,10.21
2023-02-19T00:09:19.702Z,10.37
2023-02-19T00:10:19.881Z,10.26
2023-02-19T00:11:20.055Z,10.26
2023-02-19T00:12:20.253Z,10.26
2023-02-19T00:13:20.921Z,10.26
2023-02-19T00:14:21.106Z,10.47
2023-02-19T00:15:21.295Z,10.26
2023-02-19T00:16:21.482Z,10.26
2023-02-19T00:17:22.155Z,10.47
2023-02-19T00:18:22.349Z,10.26
2023-02-19T00:19:22.521Z,10.21
2023-02-19T00:20:22.683Z,10.47
2023-02-19T00:21:23.436Z,10.31
2023-02-19T00:22:23.551Z,10.21
2023-02-19T00:23:23.710Z,10.21
2023-02-19T00:24:23.896Z,10.26
2023-02-19T00:25:24.585Z,10.26
2023-02-19T00:26:22.970Z,10.26
2023-02-19T00:27:23.270Z,10.26
2023-02-19T00:28:25.458Z,10.26
2023-02-19T00:29:25.645Z,10.26
2023-02-19T00:30:24.240Z,10.26
2023-02-19T00:31:24.606Z,10.26
2023-02-19T00:32:24.675Z,10.31
2023-02-19T00:33:26.842Z,10.26
2023-02-19T00:34:27.038Z,10.26
2023-02-19T00:35:27.206Z,10.21
2023-02-19T00:36:27.393Z,10.31
2023-02-19T00:37:28.089Z,10.26
2023-02-19T00:38:28.279Z,10.26
2023-02-19T00:39:28.454Z,10.26
2023-02-19T00:40:28.655Z,10.26
2023-02-19T00:41:29.316Z,10.21
2023-02-19T00:42:29.514Z,10.26
2023-02-19T00:43:29.698Z,10.31
2023-02-19T00:44:29.872Z,10.31
2023-02-19T00:45:30.523Z,10.26
2023-02-19T00:46:30.761Z,10.26
2023-02-19T00:47:30.931Z,10.31
2023-02-19T00:48:31.106Z,10.26
2023-02-19T00:49:31.277Z,10.26
2023-02-19T00:50:31.974Z,10.26
2023-02-19T00:51:30.366Z,10.26
2023-02-19T00:52:32.532Z,10.26
2023-02-19T00:53:32.712Z,10.47
2023-02-19T00:54:31.237Z,10.26
2023-02-19T00:55:31.537Z,10.21
2023-02-19T00:56:33.738Z,10.21
2023-02-19T00:57:32.166Z,10.26
2023-02-19T00:58:34.342Z,10.21
2023-02-19T00:59:32.596Z,10.26
2023-02-19T01:00:32.910Z,10.21
2023-02-19T01:01:35.161Z,10.26
2023-02-19T01:02:33.515Z,10.37
2023-02-19T01:03:33.822Z,10.26
2023-02-19T01:04:34.169Z,10.21
2023-02-19T01:05:34.445Z,10.26
2023-02-19T01:06:36.643Z,10.26
2023-02-19T01:07:35.007Z,10.31
2023-02-19T01:08:37.194Z,9.99
2023-02-19T01:09:37.370Z,10.31
2023-02-19T01:10:35.889Z,10.26
2023-02-19T01:11:38.092Z,10.26
2023-02-19T01:12:37.405Z,10.26
2023-02-19T01:13:38.622Z,10.26
2023-02-19T01:14:37.011Z,10.26
2023-02-19T01:15:37.313Z,10.26
2023-02-19T01:16:39.490Z,10.26
2023-02-19T01:17:37.886Z,10.21
2023-02-19T01:18:38.193Z,10.15
2023-02-19T01:19:40.365Z,10.26
2023-02-19T01:20:40.559Z,10.26
2023-02-19T01:21:39.199Z,10.26
2023-02-19T01:22:39.352Z,10.26
2023-02-19T01:23:40.443Z,10.26
2023-02-19T01:24:39.942Z,10.47
2023-02-19T01:25:42.144Z,10.37
2023-02-19T01:26:40.602Z,10.21
2023-02-19T01:27:40.852Z,10.26
2023-02-19T01:28:41.182Z,10.26
2023-02-19T01:29:43.360Z,10.26
2023-02-19T01:30:43.538Z,10.21
2023-02-19T01:31:42.146Z,10.21
2023-02-19T01:32:42.309Z,10.26
2023-02-19T01:33:42.618Z,10.31
2023-02-19T01:34:44.805Z,10.26
2023-02-19T01:35:44.992Z,10.21
2023-02-19T01:36:45.181Z,10.31
2023-02-19T01:37:43.818Z,10.37
2023-02-19T01:38:44.129Z,10.31
2023-02-19T01:39:44.432Z,10.26
2023-02-19T01:40:44.747Z,10.26
2023-02-19T01:41:46.917Z,10.21
2023-02-19T01:42:45.308Z,10.26
2023-02-19T01:43:45.634Z,10.26
2023-02-19T01:44:45.954Z,10.21
2023-02-19T01:45:46.269Z,10.26
2023-02-19T01:46:48.520Z,10.31
2023-02-19T01:47:46.819Z,10.26
2023-02-19T01:48:47.128Z,10.21
2023-02-19T01:49:47.435Z,10.47
2023-02-19T01:50:47.753Z,10.26
2023-02-19T01:51:49.937Z,10.21
2023-02-19T01:52:50.117Z,10.26
2023-02-19T01:53:50.304Z,10.31
2023-02-19T01:54:50.484Z,10.26
2023-02-19T01:55:51.162Z,10.26
2023-02-19T01:56:51.349Z,10.31
2023-02-19T01:57:49.869Z,10.26
2023-02-19T01:58:50.193Z,10.21
2023-02-19T01:59:50.513Z,10.26
2023-02-19T02:00:50.891Z,10.21
2023-02-19T02:01:53.056Z,10.26
2023-02-19T02:02:51.474Z,10.31
2023-02-19T02:03:51.775Z,10.26
2023-02-19T02:04:52.093Z,10.26
2023-02-19T02:05:52.416Z,10.21
2023-02-19T02:06:52.732Z,10.26
2023-02-19T02:07:54.909Z,10.26
2023-02-19T02:08:53.314Z,10.26
2023-02-19T02:09:53.626Z,10.26
2023-02-19T02:10:55.823Z,10.26
2023-02-19T02:11:54.214Z,10.26
2023-02-19T02:12:56.411Z,10.26
2023-02-19T02:13:56.592Z,10.21
2023-02-19T02:14:56.806Z,10.26
2023-02-19T02:15:57.015Z,10.26
2023-02-19T02:16:57.684Z,10.26
2023-02-19T02:17:57.859Z,10.21
2023-02-19T02:18:58.015Z,10.26
2023-02-19T02:19:58.175Z,10.26
2023-02-19T02:20:58.893Z,10.26
2023-02-19T02:21:59.043Z,10.26
2023-02-19T02:22:59.238Z,10.31
2023-02-19T02:23:59.415Z,10.26
2023-02-19T02:25:00.156Z,10.26
2023-02-19T02:26:00.295Z,10.21
2023-02-19T02:27:00.495Z,10.26
2023-02-19T02:27:59.124Z,10.26
2023-02-19T02:29:01.322Z,10.26
2023-02-19T02:29:59.726Z,10.26
2023-02-19T02:31:00.060Z,10.31
2023-02-19T02:32:00.409Z,10.21
2023-02-19T02:33:02.527Z,10.58
2023-02-19T02:34:02.718Z,10.21
2023-02-19T02:35:01.239Z,10.21
2023-02-19T02:36:01.551Z,10.26
2023-02-19T02:37:01.875Z,10.26
2023-02-19T02:38:04.060Z,10.26
2023-02-19T02:39:04.239Z,10.26
2023-02-19T02:40:02.754Z,10.26
2023-02-19T02:41:04.967Z,10.26
2023-02-19T02:42:03.326Z,10.26
2023-02-19T02:43:05.516Z,10.37
2023-02-19T02:44:05.696Z,10.26
2023-02-19T02:45:05.873Z,10.21
2023-02-19T02:46:04.557Z,10.21
2023-02-19T02:47:06.719Z,10.31
2023-02-19T02:48:05.097Z,10.21
2023-02-19T02:49:05.425Z,10.47
2023-02-19T02:50:07.613Z,10.42
2023-02-19T02:51:05.988Z,10.21
2023-02-19T02:52:06.292Z,10.37
2023-02-19T02:53:06.613Z,10.26
2023-02-19T02:54:06.925Z,10.37
2023-02-19T02:55:10.068Z,10.31
2023-02-19T02:56:07.466Z,10.26
2023-02-19T02:57:07.792Z,10.31
2023-02-19T02:58:08.100Z,10.26
2023-02-19T02:59:10.291Z,10.21
2023-02-19T03:00:08.692Z,10.26
2023-02-19T03:01:09.574Z,10.26
2023-02-19T03:02:09.428Z,10.31
2023-02-19T03:03:09.583Z,10.26
2023-02-19T03:04:11.769Z,10.21
2023-02-19T03:05:10.165Z,10.42
2023-02-19T03:06:10.477Z,10.26
2023-02-19T03:07:12.680Z,10.26
2023-02-19T03:08:11.054Z,10.26
2023-02-19T03:09:12.323Z,10.26
2023-02-19T03:10:12.510Z,10.26
2023-02-19T03:11:12.081Z,10.26
2023-02-19T03:12:14.207Z,10.21
2023-02-19T03:13:12.606Z,10.37
2023-02-19T03:14:12.902Z,10.26
2023-02-19T03:15:13.217Z,10.26
2023-02-19T03:16:13.542Z,10.21
2023-02-19T03:17:15.727Z,10.26
2023-02-19T03:18:14.110Z,10.26
2023-02-19T03:19:16.287Z,10.26
2023-02-19T03:20:14.689Z,10.26
2023-02-19T03:21:14.987Z,10.26
2023-02-19T03:22:15.297Z,10.26
2023-02-19T03:23:15.610Z,10.21
2023-02-19T03:24:17.789Z,10.26
2023-02-19T03:25:16.173Z,10.21
2023-02-19T03:26:16.487Z,10.26
2023-02-19T03:27:18.678Z,10.26
2023-02-19T03:28:17.046Z,10.26
2023-02-19T03:29:17.348Z,10.26
2023-02-19T03:30:19.581Z,10.21
2023-02-19T03:31:18.023Z,10.31
2023-02-19T03:32:18.254Z,10.21
2023-02-19T03:33:21.848Z,10.26
2023-02-19T03:34:20.625Z,10.26
2023-02-19T03:35:19.099Z,10.26
2023-02-19T03:36:21.254Z,10.26
2023-02-19T03:37:19.656Z,10.21
2023-02-19T03:38:21.857Z,10.26
2023-02-19T03:39:20.234Z,10.21
2023-02-19T03:40:20.563Z,10.04
2023-02-19T03:41:21.818Z,10.26
2023-02-19T03:42:21.197Z,10.26
2023-02-19T03:43:24.325Z,10.26
2023-02-19T03:44:23.583Z,10.26
2023-02-19T03:45:23.751Z,10.26
2023-02-19T03:46:23.926Z,10.31
2023-02-19T03:47:24.110Z,10.26
2023-02-19T03:48:24.826Z,10.26
2023-02-19T03:49:24.996Z,10.26
2023-02-19T03:50:25.185Z,10.26
2023-02-19T03:51:25.370Z,10.26
2023-02-19T03:52:26.060Z,10.26
2023-02-19T03:53:26.241Z,10.26
2023-02-19T03:54:26.409Z,10.26
2023-02-19T03:55:26.590Z,10.21
2023-02-19T03:56:27.271Z,10.26
2023-02-19T03:57:27.454Z,10.26
2023-02-19T03:58:27.614Z,10.31
2023-02-19T03:59:27.795Z,10.26
2023-02-19T04:00:28.476Z,10.10
2023-02-19T04:01:28.671Z,10.26
2023-02-19T04:02:28.878Z,10.26
2023-02-19T04:03:29.026Z,10.26
2023-02-19T04:04:29.759Z,10.26
2023-02-19T04:05:29.908Z,10.21
2023-02-19T04:06:30.083Z,10.26
2023-02-19T04:07:30.271Z,10.26
2023-02-19T04:08:30.958Z,10.31
2023-02-19T04:09:29.353Z,10.26
2023-02-19T04:10:31.528Z,10.26
2023-02-19T04:11:29.932Z,10.26
2023-02-19T04:12:30.247Z,10.04
2023-02-19T04:13:30.556Z,10.26
2023-02-19T04:14:30.870Z,10.26
2023-02-19T04:15:33.065Z,10.26
2023-02-19T04:16:33.302Z,10.21
2023-02-19T04:17:33.474Z,10.37
2023-02-19T04:18:33.629Z,10.26
2023-02-19T04:19:34.305Z,10.10
2023-02-19T04:20:34.504Z,10.04
2023-02-19T04:21:34.653Z,10.26
2023-02-19T04:22:34.821Z,10.26
2023-02-19T04:23:35.502Z,10.26
2023-02-19T04:24:35.695Z,10.26
2023-02-19T04:25:35.867Z,10.26
2023-02-19T04:26:36.028Z,10.04
2023-02-19T04:27:36.718Z,10.26
2023-02-19T04:28:35.112Z,10.26
2023-02-19T04:29:39.194Z,10.26
2023-02-19T04:30:37.558Z,10.21
2023-02-19T04:31:36.148Z,10.10
2023-02-19T04:32:36.345Z,10.26
2023-02-19T04:33:36.642Z,10.26
2023-02-19T04:34:36.966Z,10.04
2023-02-19T04:35:39.144Z,10.10
2023-02-19T04:36:37.527Z,10.26
2023-02-19T04:37:37.853Z,10.26
2023-02-19T04:38:38.196Z,10.26
2023-02-19T04:39:38.501Z,9.88
2023-02-19T04:40:40.682Z,10.37
2023-02-19T04:41:39.064Z,10.21
2023-02-19T04:42:39.384Z,10.10
2023-02-19T04:43:39.683Z,10.04
2023-02-19T04:44:40.018Z,10.04
2023-02-19T04:45:42.190Z,10.04
2023-02-19T04:46:42.931Z,10.04
2023-02-19T04:47:40.889Z,10.26
2023-02-19T04:48:41.199Z,10.26
2023-02-19T04:49:41.509Z,10.26
2023-02-19T04:50:43.705Z,10.26
2023-02-19T04:51:42.087Z,10.10
2023-02-19T04:52:42.414Z,10.69
2023-02-19T04:53:42.742Z,10.26
2023-02-19T04:54:43.056Z,10.04
2023-02-19T04:55:45.222Z,10.26
2023-02-19T04:56:43.619Z,10.04
2023-02-19T04:57:43.932Z,10.26
2023-02-19T04:58:44.262Z,10.04
2023-02-19T04:59:44.581Z,10.26
2023-02-19T05:00:44.911Z,10.26
2023-02-19T05:01:47.241Z,10.21
2023-02-19T05:02:45.505Z,10.26
2023-02-19T05:03:45.829Z,10.26
2023-02-19T05:04:46.139Z,10.15
2023-02-19T05:05:46.456Z,10.21
2023-02-19T05:06:48.641Z,10.10
2023-02-19T05:07:47.026Z,10.26
2023-02-19T05:08:47.343Z,10.04
2023-02-19T05:09:49.526Z,10.10
2023-02-19T05:10:47.914Z,10.10
2023-02-19T05:11:48.217Z,10.21
2023-02-19T05:12:48.527Z,10.26
2023-02-19T05:13:48.826Z,10.21
2023-02-19T05:14:49.134Z,10.04
2023-02-19T05:15:51.380Z,10.26
2023-02-19T05:16:51.504Z,10.21
2023-02-19T05:17:50.005Z,10.10
2023-02-19T05:18:53.148Z,10.26
2023-02-19T05:19:50.552Z,10.26
2023-02-19T05:20:52.714Z,10.21
2023-02-19T05:21:52.895Z,10.26
2023-02-19T05:22:52.318Z,10.04
2023-02-19T05:23:52.477Z,10.21
2023-02-19T05:24:51.964Z,10.04
2023-02-19T05:25:52.278Z,10.26
2023-02-19T05:26:54.476Z,10.26
2023-02-19T05:27:52.863Z,10.26
2023-02-19T05:28:55.056Z,10.31
2023-02-19T05:29:53.439Z,10.26
2023-02-19T05:30:55.670Z,10.10
2023-02-19T05:31:55.860Z,10.15
2023-02-19T05:32:55.209Z,10.10
2023-02-19T05:33:56.552Z,10.10
2023-02-19T05:34:54.847Z,10.21
2023-02-19T05:35:55.171Z,10.04
2023-02-19T05:36:55.471Z,10.10
2023-02-19T05:37:57.644Z,10.10
2023-02-19T05:38:56.031Z,10.04
2023-02-19T05:39:56.329Z,10.10
2023-02-19T05:40:56.660Z,10.04
2023-02-19T05:41:56.991Z,10.26
2023-02-19T05:42:57.285Z,10.10
2023-02-19T05:43:59.461Z,10.26
2023-02-19T05:44:57.853Z,10.15
2023-02-19T05:45:58.164Z,10.04
2023-02-19T05:46:58.478Z,10.31
2023-02-19T05:47:58.725Z,10.04
2023-02-19T05:49:00.909Z,10.04
2023-02-19T05:49:59.299Z,10.04
2023-02-19T05:50:59.592Z,10.04
2023-02-19T05:51:59.899Z,10.37
2023-02-19T05:53:02.102Z,10.10
2023-02-19T05:54:02.289Z,10.04
2023-02-19T05:55:02.492Z,10.04
2023-02-19T05:56:02.665Z,10.04
2023-02-19T05:57:03.326Z,10.04
2023-02-19T05:58:03.492Z,10.04
2023-02-19T05:59:03.681Z,10.04
2023-02-19T06:00:03.856Z,10.04
2023-02-19T06:01:04.577Z,10.21
2023-02-19T06:02:04.754Z,10.04
2023-02-19T06:03:04.954Z,10.15
2023-02-19T06:04:05.174Z,10.04
2023-02-19T06:05:05.323Z,10.10
2023-02-19T06:06:06.006Z,9.99
2023-02-19T06:07:06.199Z,9.99
2023-02-19T06:08:06.383Z,10.04
2023-02-19T06:09:06.581Z,10.10
2023-02-19T06:10:07.258Z,10.04
2023-02-19T06:11:07.449Z,10.10
2023-02-19T06:12:07.627Z,10.10
2023-02-19T06:13:07.808Z,10.04
2023-02-19T06:14:08.498Z,10.10
2023-02-19T06:15:08.713Z,10.10
2023-02-19T06:16:08.892Z,10.04
2023-02-19T06:17:07.495Z,9.99
2023-02-19T06:18:09.680Z,10.04
2023-02-19T06:19:11.309Z,10.04
2023-02-19T06:20:08.347Z,10.10
2023-02-19T06:21:10.817Z,10.04
2023-02-19T06:22:08.955Z,10.21
2023-02-19T06:23:11.147Z,10.04
2023-02-19T06:24:09.541Z,10.10
2023-02-19T06:25:11.735Z,10.04
2023-02-19T06:26:11.906Z,10.04
2023-02-19T06:27:10.443Z,10.10
2023-02-19T06:28:10.776Z,9.99
2023-02-19T06:29:11.085Z,10.04
2023-02-19T06:30:11.502Z,9.99
2023-02-19T06:31:11.999Z,10.10
2023-02-19T06:32:13.997Z,10.04
2023-02-19T06:33:12.268Z,10.04
2023-02-19T06:34:12.610Z,10.15
2023-02-19T06:35:14.815Z,9.99
2023-02-19T06:36:14.985Z,10.10
2023-02-19T06:37:13.528Z,10.10
2023-02-19T06:38:14.822Z,10.10
2023-02-19T06:39:14.092Z,9.88
2023-02-19T06:40:16.284Z,9.94
2023-02-19T06:41:16.434Z,10.10
2023-02-19T06:42:16.616Z,10.10
2023-02-19T06:43:15.285Z,10.04
2023-02-19T06:44:17.430Z,10.04
2023-02-19T06:45:15.967Z,10.04
2023-02-19T06:46:18.232Z,9.99
2023-02-19T06:47:16.623Z,10.04
2023-02-19T06:48:16.923Z,10.04
2023-02-19T06:49:19.114Z,10.10
2023-02-19T06:50:17.520Z,10.04
2023-02-19T06:51:19.713Z,10.04
2023-02-19T06:52:18.149Z,10.04
2023-02-19T06:53:18.462Z,10.10
2023-02-19T06:54:18.682Z,9.99
2023-02-19T06:55:19.028Z,10.04
2023-02-19T06:56:21.207Z,10.04
2023-02-19T06:57:19.511Z,10.10
2023-02-19T06:58:19.748Z,10.04
2023-02-19T06:59:20.102Z,9.99
2023-02-19T07:00:20.421Z,10.04
2023-02-19T07:01:22.615Z,10.04
2023-02-19T07:02:20.901Z,10.04
2023-02-19T07:03:21.143Z,10.04
2023-02-19T07:04:21.427Z,10.10
2023-02-19T07:05:21.633Z,10.04
2023-02-19T07:06:22.002Z,10.21
2023-02-19T07:07:24.256Z,10.04
2023-02-19T07:08:22.430Z,10.10
2023-02-19T07:09:22.782Z,10.10
2023-02-19T07:10:23.010Z,10.04
2023-02-19T07:11:23.249Z,10.04
2023-02-19T07:12:25.451Z,10.10
2023-02-19T07:13:23.749Z,10.04
2023-02-19T07:14:23.977Z,10.04
2023-02-19T07:15:24.224Z,10.04
2023-02-19T07:16:24.516Z,10.10
2023-02-19T07:17:26.641Z,10.04
2023-02-19T07:18:25.073Z,10.10
2023-02-19T07:19:27.253Z,10.04
2023-02-19T07:20:25.576Z,10.04
2023-02-19T07:21:25.787Z,10.04
2023-02-19T07:22:26.008Z,10.10
2023-02-19T07:23:28.208Z,9.99
2023-02-19T07:24:26.623Z,10.04
2023-02-19T07:25:26.986Z,10.04
2023-02-19T07:26:27.237Z,10.04
2023-02-19T07:27:28.284Z,10.04
2023-02-19T07:28:29.678Z,10.04
2023-02-19T07:29:29.856Z,10.04
2023-02-19T07:30:29.287Z,10.10
2023-02-19T07:31:29.525Z,10.04
2023-02-19T07:32:30.796Z,10.10
2023-02-19T07:33:30.984Z,9.99
2023-02-19T07:34:31.179Z,10.10
2023-02-19T07:35:31.372Z,10.04
2023-02-19T07:36:31.630Z,10.04
2023-02-19T07:37:32.289Z,10.04
2023-02-19T07:38:32.494Z,10.04
2023-02-19T07:39:32.678Z,10.10
2023-02-19T07:40:32.861Z,10.04
2023-02-19T07:41:33.551Z,10.04
2023-02-19T07:42:33.742Z,10.04
2023-02-19T07:43:33.941Z,10.04
2023-02-19T07:44:34.133Z,10.04
2023-02-19T07:45:32.813Z,10.04
2023-02-19T07:46:34.995Z,10.04
2023-02-19T07:47:35.187Z,9.99
2023-02-19T07:48:33.617Z,9.99
2023-02-19T07:49:33.957Z,10.10
2023-02-19T07:50:34.203Z,10.10
2023-02-19T07:51:34.427Z,10.10
2023-02-19T07:52:36.614Z,10.04
2023-02-19T07:53:36.807Z,10.10
2023-02-19T07:54:37.015Z,10.10
2023-02-19T07:55:37.198Z,10.04
2023-02-19T07:56:37.894Z,10.04
2023-02-19T07:57:38.074Z,10.10
2023-02-19T07:58:36.512Z,10.04
2023-02-19T07:59:38.694Z,10.04
2023-02-19T08:00:38.886Z,10.10
2023-02-19T08:01:39.074Z,10.10
2023-02-19T08:02:39.278Z,10.04
2023-02-19T08:03:40.030Z,10.04
2023-02-19T08:04:40.136Z,10.10
2023-02-19T08:05:41.797Z,10.10
2023-02-19T08:06:40.527Z,10.04
2023-02-19T08:07:41.189Z,10.10
2023-02-19T08:08:41.349Z,10.10
2023-02-19T08:09:41.517Z,10.10
2023-02-19T08:10:41.709Z,10.04
2023-02-19T08:11:41.898Z,10.04
2023-02-19T08:12:42.561Z,10.04
2023-02-19T08:13:42.720Z,10.04
2023-02-19T08:14:42.907Z,10.10
2023-02-19T08:15:41.576Z,10.04
2023-02-19T08:16:43.806Z,10.04
2023-02-19T08:17:42.206Z,10.10
2023-02-19T08:18:44.390Z,10.10
2023-02-19T08:19:42.818Z,10.04
2023-02-19T08:20:44.998Z,10.10
2023-02-19T08:21:43.302Z,10.04
2023-02-19T08:22:45.580Z,10.04
2023-02-19T08:23:43.756Z,10.10
2023-02-19T08:24:45.980Z,10.04
2023-02-19T08:25:44.289Z,10.10
2023-02-19T08:26:44.511Z,10.10
2023-02-19T08:27:46.688Z,9.99
2023-02-19T08:28:44.969Z,9.99
2023-02-19T08:29:45.296Z,10.04
2023-02-19T08:30:45.703Z,9.83
2023-02-19T08:31:46.017Z,10.10
2023-02-19T08:32:46.199Z,10.04
2023-02-19T08:33:48.400Z,10.04
2023-02-19T08:34:46.696Z,9.83
2023-02-19T08:35:47.025Z,10.04
2023-02-19T08:36:47.379Z,10.04
2023-02-19T08:37:47.631Z,10.10
2023-02-19T08:38:49.801Z,10.04
2023-02-19T08:39:48.099Z,10.10
2023-02-19T08:40:48.338Z,10.04
2023-02-19T08:41:48.564Z,10.04
2023-02-19T08:42:48.800Z,10.15
2023-02-19T08:43:49.035Z,10.04
2023-02-19T08:44:51.241Z,10.04
2023-02-19T08:45:49.557Z,10.04
2023-02-19T08:46:49.786Z,10.04
2023-02-19T08:47:50.016Z,10.10
2023-02-19T08:48:52.256Z,10.10
2023-02-19T08:49:51.390Z,9.83
2023-02-19T08:50:50.824Z,9.88
2023-02-19T08:51:51.040Z,10.04
2023-02-19T08:52:52.152Z,10.04
2023-02-19T08:53:53.497Z,10.04
2023-02-19T08:54:51.805Z,10.10
2023-02-19T08:55:52.024Z,10.10
2023-02-19T08:56:52.276Z,9.88
2023-02-19T08:57:52.506Z,10.04
2023-02-19T08:58:54.701Z,9.88
2023-02-19T08:59:52.996Z,10.04
2023-02-19T09:00:53.553Z,10.04
2023-02-19T09:01:53.465Z,10.10
2023-02-19T09:02:53.713Z,10.04
2023-02-19T09:03:55.906Z,10.10
2023-02-19T09:04:54.200Z,10.04
2023-02-19T09:05:54.453Z,9.94
2023-02-19T09:06:54.685Z,9.88
2023-02-19T09:07:54.913Z,10.10
2023-02-19T09:08:57.113Z,10.15
2023-02-19T09:09:55.412Z,10.04
2023-02-19T09:10:55.661Z,10.04
2023-02-19T09:11:55.979Z,10.10
2023-02-19T09:12:56.217Z,10.04
2023-02-19T09:13:58.396Z,10.10
2023-02-19T09:14:56.710Z,10.04
2023-02-19T09:15:57.099Z,9.99
2023-02-19T09:16:57.224Z,10.42
2023-02-19T09:17:57.453Z,9.88
2023-02-19T09:18:57.686Z,9.99
2023-02-19T09:19:59.879Z,10.10
2023-02-19T09:20:58.198Z,10.04
2023-02-19T09:21:58.452Z,10.04
2023-02-19T09:23:00.636Z,10.04
2023-02-19T09:24:01.802Z,10.10
2023-02-19T09:24:59.232Z,10.15
2023-02-19T09:26:02.361Z,10.04
2023-02-19T09:26:59.821Z,9.88
2023-02-19T09:28:01.988Z,9.88
2023-02-19T09:29:00.305Z,10.10
2023-02-19T09:30:02.531Z,9.99
2023-02-19T09:31:00.828Z,10.10
2023-02-19T09:32:01.058Z,10.10
2023-02-19T09:33:01.293Z,10.04
2023-02-19T09:34:03.588Z,10.04
2023-02-19T09:35:03.693Z,10.04
2023-02-19T09:36:02.136Z,9.83
2023-02-19T09:37:02.370Z,9.99
2023-02-19T09:38:02.602Z,10.04
2023-02-19T09:39:04.784Z,9.94
2023-02-19T09:40:06.409Z,9.88
2023-02-19T09:41:05.121Z,9.88
2023-02-19T09:42:05.275Z,10.10
2023-02-19T09:43:04.996Z,9.88
2023-02-19T09:44:06.146Z,9.88
2023-02-19T09:45:07.788Z,10.04
2023-02-19T09:46:05.743Z,9.99
2023-02-19T09:47:06.148Z,10.04
2023-02-19T09:48:07.346Z,9.88
2023-02-19T09:49:07.547Z,9.88
2023-02-19T09:50:07.719Z,10.21
2023-02-19T09:51:08.423Z,9.83
2023-02-19T09:52:08.580Z,9.88
2023-02-19T09:53:08.751Z,9.94
2023-02-19T09:54:08.935Z,9.88
2023-02-19T09:55:09.116Z,9.88
2023-02-19T09:56:09.788Z,9.88
2023-02-19T09:57:09.992Z,9.88
2023-02-19T09:58:10.174Z,9.88
2023-02-19T09:59:10.338Z,9.88
2023-02-19T10:00:11.016Z,10.04
2023-02-19T10:01:11.798Z,9.88
2023-02-19T10:02:11.448Z,10.04
2023-02-19T10:03:12.114Z,9.88
2023-02-19T10:04:12.299Z,10.04
2023-02-19T10:05:12.570Z,9.83
2023-02-19T10:06:11.499Z,10.04
2023-02-19T10:07:13.227Z,10.04
2023-02-19T10:08:13.382Z,10.10
2023-02-19T10:09:13.540Z,9.88
2023-02-19T10:10:13.739Z,9.83
2023-02-19T10:11:14.404Z,9.83
2023-02-19T10:12:14.598Z,9.78
2023-02-19T10:13:16.247Z,9.88
2023-02-19T10:14:15.960Z,9.83
2023-02-19T10:15:15.204Z,10.10
2023-02-19T10:16:15.949Z,9.88
2023-02-19T10:17:16.080Z,9.83
2023-02-19T10:18:16.266Z,9.88
2023-02-19T10:19:16.471Z,9.88
2023-02-19T10:20:16.644Z,10.10
2023-02-19T10:21:17.348Z,10.04
2023-02-19T10:22:18.547Z,9.99
2023-02-19T10:23:15.989Z,9.88
2023-02-19T10:24:19.136Z,10.10
2023-02-19T10:25:16.486Z,9.94
2023-02-19T10:26:18.661Z,9.88
2023-02-19T10:27:18.883Z,10.10
2023-02-19T10:28:19.015Z,9.83
2023-02-19T10:29:19.199Z,9.83
2023-02-19T10:30:17.746Z,9.88
2023-02-19T10:31:20.901Z,10.04
2023-02-19T10:32:18.296Z,9.94
2023-02-19T10:33:18.510Z,9.88
2023-02-19T10:34:18.742Z,9.88
2023-02-19T10:35:19.961Z,9.88
2023-02-19T10:36:21.184Z,9.88
2023-02-19T10:37:19.479Z,10.10
2023-02-19T10:38:19.719Z,9.83
2023-02-19T10:39:21.929Z,10.04
2023-02-19T10:40:21.274Z,9.78
2023-02-19T10:41:22.595Z,9.88
2023-02-19T10:42:21.041Z,9.88
2023-02-19T10:43:21.281Z,9.88
2023-02-19T10:44:21.492Z,9.83
2023-02-19T10:45:21.859Z,9.88
2023-02-19T10:46:25.520Z,9.88
2023-02-19T10:47:22.319Z,9.83
2023-02-19T10:48:25.468Z,9.83
2023-02-19T10:49:22.795Z,9.83
2023-02-19T10:50:23.031Z,9.88
2023-02-19T10:51:25.228Z,9.88
2023-02-19T10:52:23.530Z,9.88
2023-02-19T10:53:23.775Z,9.88
2023-02-19T10:54:24.802Z,9.83
2023-02-19T10:55:24.234Z,9.88
2023-02-19T10:56:24.487Z,9.94
2023-02-19T10:57:28.114Z,9.88
2023-02-19T10:58:24.933Z,9.88
2023-02-19T10:59:27.138Z,9.88
2023-02-19T11:00:25.412Z,9.88
2023-02-19T11:01:25.682Z,9.88
2023-02-19T11:02:27.901Z,9.88
2023-02-19T11:03:26.216Z,9.61
2023-02-19T11:04:26.441Z,9.88
2023-02-19T11:05:28.646Z,9.88
2023-02-19T11:06:26.951Z,10.04
2023-02-19T11:07:27.208Z,9.88
2023-02-19T11:08:27.419Z,9.94
2023-02-19T11:09:27.663Z,9.88
2023-02-19T11:10:29.844Z,9.88
2023-02-19T11:11:28.147Z,9.88
2023-02-19T11:12:28.390Z,9.72
2023-02-19T11:13:28.727Z,9.88
2023-02-19T11:14:28.952Z,9.88
2023-02-19T11:15:31.146Z,9.88
2023-02-19T11:16:29.484Z,9.94
2023-02-19T11:17:31.625Z,9.94
2023-02-19T11:18:30.884Z,9.94
2023-02-19T11:19:30.178Z,9.88
2023-02-19T11:20:30.412Z,9.88
2023-02-19T11:21:32.593Z,9.83
2023-02-19T11:22:30.900Z,9.83
2023-02-19T11:23:31.144Z,9.88
2023-02-19T11:24:31.403Z,9.88
2023-02-19T11:25:31.618Z,9.78
2023-02-19T11:26:33.796Z,9.88
2023-02-19T11:27:32.106Z,9.88
2023-02-19T11:28:32.316Z,9.88
2023-02-19T11:29:32.668Z,9.94
2023-02-19T11:30:35.891Z,9.94
2023-02-19T11:31:35.146Z,9.83
2023-02-19T11:32:33.424Z,9.94
2023-02-19T11:33:33.680Z,9.88
2023-02-19T11:34:35.879Z,9.88
2023-02-19T11:35:34.194Z,9.83
2023-02-19T11:36:34.418Z,9.88
2023-02-19T11:37:34.769Z,9.94
2023-02-19T11:38:36.963Z,9.72
2023-02-19T11:39:35.261Z,9.99
2023-02-19T11:40:35.508Z,9.88
2023-02-19T11:41:37.715Z,9.94
2023-02-19T11:42:36.009Z,9.88
2023-02-19T11:43:36.254Z,9.94
2023-02-19T11:44:36.476Z,9.88
2023-02-19T11:45:36.711Z,9.88
2023-02-19T11:46:40.384Z,9.88
2023-02-19T11:47:37.195Z,9.88
2023-02-19T11:48:37.424Z,9.94
2023-02-19T11:49:37.768Z,9.88
2023-02-19T11:50:37.997Z,9.88
2023-02-19T11:51:40.181Z,9.83
2023-02-19T11:52:38.603Z,9.88
2023-02-19T11:53:40.783Z,9.94
2023-02-19T11:54:39.102Z,9.88
2023-02-19T11:55:46.340Z,9.99
2023-02-19T11:56:41.581Z,9.88
2023-02-19T11:57:40.067Z,9.88
2023-02-19T11:58:43.127Z,9.83
2023-02-19T11:59:42.371Z,9.88
2023-02-19T12:00:42.536Z,9.88
2023-02-19T12:01:41.138Z,9.94
2023-02-19T12:02:42.316Z,9.88
2023-02-19T12:03:43.502Z,9.94
2023-02-19T12:04:41.935Z,9.88
2023-02-19T12:05:44.110Z,9.83
2023-02-19T12:06:44.310Z,9.88
2023-02-19T12:07:44.487Z,9.88
2023-02-19T12:08:46.144Z,9.88
2023-02-19T12:09:43.318Z,9.83
2023-02-19T12:10:43.680Z,9.88
2023-02-19T12:11:43.901Z,9.88
2023-02-19T12:12:46.097Z,9.83
2023-02-19T12:13:46.289Z,9.88
2023-02-19T12:14:46.475Z,9.88
2023-02-19T12:15:45.013Z,9.88
2023-02-19T12:16:45.412Z,9.94
2023-02-19T12:17:47.549Z,9.88
2023-02-19T12:18:47.932Z,9.88
2023-02-19T12:19:46.360Z,9.88
2023-02-19T12:20:46.553Z,9.88
2023-02-19T12:21:46.773Z,9.94
2023-02-19T12:22:48.972Z,9.88
2023-02-19T12:23:49.155Z,9.88
2023-02-19T12:24:49.320Z,9.83
2023-02-19T12:25:47.988Z,9.88
2023-02-19T12:26:48.348Z,9.88
2023-02-19T12:27:48.607Z,9.99
2023-02-19T12:28:49.783Z,9.88
2023-02-19T12:29:50.972Z,9.83
2023-02-19T12:30:51.188Z,9.88
2023-02-19T12:31:51.415Z,9.88
2023-02-19T12:32:51.604Z,9.94
2023-02-19T12:33:52.275Z,9.94
2023-02-19T12:34:52.486Z,9.88
2023-02-19T12:35:52.647Z,9.83
2023-02-19T12:36:52.941Z,9.88
2023-02-19T12:37:51.604Z,9.94
2023-02-19T12:38:53.805Z,9.88
2023-02-19T12:39:52.223Z,9.88
2023-02-19T12:40:52.567Z,9.88
2023-02-19T12:41:52.805Z,9.88
2023-02-19T12:42:53.037Z,9.88
2023-02-19T12:43:55.206Z,9.83
2023-02-19T12:44:53.504Z,9.83
2023-02-19T12:45:53.752Z,9.94
2023-02-19T12:46:53.975Z,9.94
2023-02-19T12:47:54.210Z,9.88
2023-02-19T12:48:56.404Z,9.88
2023-02-19T12:49:56.607Z,9.88
2023-02-19T12:50:55.029Z,9.67
2023-02-19T12:51:55.351Z,9.88
2023-02-19T12:52:55.544Z,9.88
2023-02-19T12:53:57.726Z,9.94
2023-02-19T12:54:56.094Z,9.88
2023-02-19T12:55:58.245Z,9.88
2023-02-19T12:56:56.562Z,9.83
2023-02-19T12:57:58.740Z,9.88
2023-02-19T12:59:00.382Z,9.88
2023-02-19T12:59:57.313Z,9.94
2023-02-19T13:00:59.528Z,9.88
2023-02-19T13:01:57.861Z,9.88
2023-02-19T13:03:00.000Z,9.88